Time;durP1;ratioP1;P1;durP2;ratioP2;P2;SDS_P1;SDS_P2;PMS_P1;PMS_P2;Temp;Humidity;BMP_temperature;BMP_pressure;BME280_temperature;BME280_humidity;BME280_pressure;Samples;Min_cycle;Max_cycle;Signal;HPM_P1;HPM_P2
2022/10/30 00:00:18;;;;;;;11.32;4.15;;;;;;;;;;10590486;27;20569;-79
2022/10/30 00:05:30;;;;;;;14.43;4.10;;;;;;;;;;10616753;27;20039;-79
2022/10/30 00:10:51;;;;;;;12.82;4.00;;;;;;;;;;10586321;27;20045;-78
2022/10/30 00:16:04;;;;;;;14.35;4.00;;;;;;;;;;10597542;27;20338;-78
2022/10/30 00:21:23;;;;;;;11.60;4.45;;;;;;;;;;10558762;28;20562;-79
2022/10/30 00:26:32;;;;;;;11.95;4.43;;;;;;;;;;10588820;27;20035;-78
2022/10/30 00:31:37;;;;;;;12.02;4.13;;;;;;;;;;10578847;27;20044;-79
2022/10/30 00:36:42;;;;;;;11.93;4.05;;;;;;;;;;10613654;27;20047;-78
2022/10/30 00:41:50;;;;;;;15.20;3.63;;;;;;;;;;10612814;27;20051;-78
2022/10/30 00:46:59;;;;;;;8.40;3.78;;;;;;;;;;10612106;27;20046;-78
2022/10/30 00:52:14;;;;;;;15.65;3.85;;;;;;;;;;10560506;28;20069;-77
2022/10/30 00:57:30;;;;;;;9.07;3.42;;;;;;;;;;10587565;27;20500;-77
2022/10/30 01:03:12;;;;;;;12.13;3.70;;;;;;;;;;10615785;27;20294;-78
2022/10/30 01:08:20;;;;;;;10.23;3.05;;;;;;;;;;10597254;27;20043;-78
2022/10/30 01:13:26;;;;;;;14.18;3.80;;;;;;;;;;10556368;28;20118;-78
2022/10/30 01:18:49;;;;;;;8.48;3.17;;;;;;;;;;10610457;28;20062;-78
2022/10/30 01:24:13;;;;;;;10.73;3.67;;;;;;;;;;10591983;28;20073;-78
2022/10/30 01:29:31;;;;;;;15.82;4.38;;;;;;;;;;10601301;27;20054;-78
2022/10/30 01:34:44;;;;;;;13.40;3.10;;;;;;;;;;10578868;28;20097;-77
2022/10/30 01:39:53;;;;;;;9.10;3.33;;;;;;;;;;10591953;28;20071;-77
2022/10/30 01:44:57;;;;;;;13.05;3.42;;;;;;;;;;10557525;28;20035;-77
2022/10/30 01:50:18;;;;;;;13.90;3.65;;;;;;;;;;10576462;28;20039;-78
2022/10/30 01:55:29;;;;;;;9.48;3.30;;;;;;;;;;10588741;28;20043;-79
2022/10/30 02:06:12;;;;;;;13.40;3.60;;;;;;;;;;10589281;28;20504;-78
2022/10/30 02:11:18;;;;;;;15.40;3.17;;;;;;;;;;10582729;27;20142;-78
2022/10/30 02:16:30;;;;;;;13.25;3.95;;;;;;;;;;10592774;27;20046;-78
2022/10/30 02:21:43;;;;;;;10.82;3.22;;;;;;;;;;10605685;27;20047;-78
2022/10/30 02:26:57;;;;;;;11.55;3.45;;;;;;;;;;10594865;27;20051;-78
2022/10/30 02:37:35;;;;;;;12.70;4.10;;;;;;;;;;10608774;27;20051;-78
2022/10/30 02:42:53;;;;;;;8.15;3.20;;;;;;;;;;10592844;28;20040;-78
2022/10/30 02:48:07;;;;;;;12.63;3.90;;;;;;;;;;10628247;27;20039;-78
2022/10/30 02:53:15;;;;;;;6.75;3.03;;;;;;;;;;10609646;28;20051;-78
2022/10/30 02:58:23;;;;;;;17.65;3.85;;;;;;;;;;10636821;27;20047;-80
2022/10/30 03:03:31;;;;;;;12.73;3.47;;;;;;;;;;10626028;27;20499;-79
2022/10/30 03:08:39;;;;;;;16.10;3.67;;;;;;;;;;10617421;27;20047;-77
2022/10/30 03:13:45;;;;;;;12.13;3.88;;;;;;;;;;10581792;28;20039;-77
2022/10/30 03:18:55;;;;;;;10.00;3.47;;;;;;;;;;10600425;27;20058;-78
2022/10/30 03:24:20;;;;;;;8.43;3.72;;;;;;;;;;10602587;27;20046;-79
2022/10/30 03:29:29;;;;;;;12.40;3.22;;;;;;;;;;10606604;27;20107;-79
2022/10/30 03:34:36;;;;;;;12.38;4.10;;;;;;;;;;10560354;28;20046;-78
2022/10/30 03:39:53;;;;;;;14.10;3.63;;;;;;;;;;10583836;27;20044;-78
2022/10/30 03:45:02;;;;;;;12.75;3.78;;;;;;;;;;10581604;27;20057;-78
2022/10/30 03:50:19;;;;;;;10.63;3.60;;;;;;;;;;10571649;27;20508;-79
2022/10/30 03:56:04;;;;;;;9.32;3.35;;;;;;;;;;10595526;27;20324;-78
2022/10/30 04:01:19;;;;;;;14.25;3.40;;;;;;;;;;10596840;27;20074;-78
2022/10/30 04:06:26;;;;;;;12.35;3.58;;;;;;;;;;10616087;27;20046;-79
2022/10/30 04:11:45;;;;;;;17.83;4.22;;;;;;;;;;10596918;27;20044;-78
2022/10/30 04:16:49;;;;;;;9.18;3.17;;;;;;;;;;10580946;27;20527;-79
2022/10/30 04:21:52;;;;;;;;;;;;;;;;;;10565362;28;20142;-79
2022/10/30 04:27:01;;;;;;;10.93;3.60;;;;;;;;;;10603071;27;19923;-79
2022/10/30 04:32:15;;;;;;;12.02;4.30;;;;;;;;;;10593027;27;20063;-78
2022/10/30 04:37:21;;;;;;;12.27;3.67;;;;;;;;;;10590001;27;20420;-79
2022/10/30 04:42:35;;;;;;;17.80;4.00;;;;;;;;;;10572972;28;20103;-79
2022/10/30 04:47:45;;;;;;;10.90;4.03;;;;;;;;;;10571324;27;20039;-79
2022/10/30 04:52:59;;;;;;;10.88;3.67;;;;;;;;;;10560247;28;20458;-79
2022/10/30 04:58:15;;;;;;;8.88;3.22;;;;;;;;;;10590394;27;20054;-79
2022/10/30 05:03:32;;;;;;;15.25;3.60;;;;;;;;;;10609894;27;20043;-79
2022/10/30 05:08:39;;;;;;;12.10;3.40;;;;;;;;;;10578616;27;20051;-78
2022/10/30 05:13:51;;;;;;;15.27;3.65;;;;;;;;;;10575427;28;20038;-79
2022/10/30 05:18:58;;;;;;;7.53;3.15;;;;;;;;;;10590946;28;20106;-79
2022/10/30 05:24:05;;;;;;;10.77;2.85;;;;;;;;;;10574258;28;20042;-79
2022/10/30 05:29:12;;;;;;;9.07;2.90;;;;;;;;;;10580064;28;20096;-79
2022/10/30 05:34:31;;;;;;;7.85;3.45;;;;;;;;;;10575601;28;20064;-78
2022/10/30 05:39:42;;;;;;;10.38;3.17;;;;;;;;;;10590448;28;20047;-79
2022/10/30 05:44:53;;;;;;;9.82;1.55;;;;;;;;;;10577598;28;20054;-79
2022/10/30 05:50:12;;;;;;;6.72;3.00;;;;;;;;;;10565656;28;20054;-77
2022/10/30 05:55:17;;;;;;;11.55;3.13;;;;;;;;;;10578368;27;20035;-78
2022/10/30 06:00:26;;;;;;;7.03;2.40;;;;;;;;;;10589425;27;20074;-78
2022/10/30 06:05:38;;;;;;;9.55;2.42;;;;;;;;;;10606217;27;20066;-78
2022/10/30 06:10:49;;;;;;;8.65;2.00;;;;;;;;;;10577649;28;20051;-78
2022/10/30 06:16:17;;;;;;;9.55;2.58;;;;;;;;;;10570173;27;20039;-78
2022/10/30 06:21:34;;;;;;;8.00;1.90;;;;;;;;;;10616593;27;20055;-78
2022/10/30 06:26:42;;;;;;;7.27;1.97;;;;;;;;;;10592960;27;20037;-79
2022/10/30 06:31:56;;;;;;;8.65;2.08;;;;;;;;;;10604388;27;20120;-79
2022/10/30 06:37:16;;;;;;;10.73;2.65;;;;;;;;;;10600252;27;20035;-77
2022/10/30 06:42:19;;;;;;;;;;;;;;;;;;10601081;27;20126;-79
2022/10/30 06:47:35;;;;;;;11.75;3.03;;;;;;;;;;10589046;27;20014;-78
2022/10/30 06:52:41;;;;;;;6.90;2.63;;;;;;;;;;10573872;27;20519;-79
2022/10/30 06:57:57;;;;;;;11.98;3.10;;;;;;;;;;10564732;27;20088;-78
2022/10/30 07:03:20;;;;;;;14.82;3.10;;;;;;;;;;10576194;28;20039;-79
2022/10/30 07:08:26;;;;;;;9.80;2.83;;;;;;;;;;10610277;27;20103;-79
2022/10/30 07:13:44;;;;;;;10.55;3.50;;;;;;;;;;10567747;27;20050;-79
2022/10/30 07:19:09;;;;;;;11.25;3.58;;;;;;;;;;10599731;27;20078;-79
2022/10/30 07:24:20;;;;;;;11.07;3.30;;;;;;;;;;10602057;27;20043;-79
2022/10/30 07:29:40;;;;;;;13.20;3.00;;;;;;;;;;10607342;27;20035;-78
2022/10/30 07:34:50;;;;;;;12.98;3.15;;;;;;;;;;10604957;27;20559;-78
2022/10/30 07:39:58;;;;;;;11.25;3.40;;;;;;;;;;10599098;27;20040;-79
2022/10/30 07:45:11;;;;;;;11.18;2.92;;;;;;;;;;10563207;27;20408;-79
2022/10/30 07:50:20;;;;;;;7.95;3.25;;;;;;;;;;10609459;27;20047;-79
2022/10/30 07:55:33;;;;;;;;;;;;;;;;;;10627024;27;20039;-79
2022/10/30 08:00:39;;;;;;;9.23;3.40;;;;;;;;;;10575362;27;19962;-78
2022/10/30 08:05:43;;;;;;;9.02;3.00;;;;;;;;;;10602235;27;20403;-78
2022/10/30 08:10:56;;;;;;;11.32;3.03;;;;;;;;;;10575802;27;20127;-79
2022/10/30 08:16:16;;;;;;;13.05;3.40;;;;;;;;;;10598786;27;20508;-79
2022/10/30 08:21:21;;;;;;;11.85;3.65;;;;;;;;;;10576439;28;20044;-79
2022/10/30 08:26:33;;;;;;;15.02;2.97;;;;;;;;;;10586962;27;20054;-79
2022/10/30 08:37:09;;;;;;;12.32;3.05;;;;;;;;;;10592733;27;20045;-80
2022/10/30 08:42:16;;;;;;;11.30;3.15;;;;;;;;;;10559995;28;20275;-80
2022/10/30 08:47:29;;;;;;;16.63;3.65;;;;;;;;;;10593334;27;20404;-79
2022/10/30 08:52:44;;;;;;;11.95;3.63;;;;;;;;;;10612090;27;20043;-80
2022/10/30 08:57:55;;;;;;;11.02;3.15;;;;;;;;;;10598169;27;20488;-80
2022/10/30 09:03:25;;;;;;;12.55;2.92;;;;;;;;;;10617527;27;20103;-80
2022/10/30 09:08:30;;;;;;;10.82;3.00;;;;;;;;;;10612935;27;20050;-79
2022/10/30 09:13:39;;;;;;;10.38;3.55;;;;;;;;;;10557069;28;20043;-79
2022/10/30 09:18:54;;;;;;;12.00;3.67;;;;;;;;;;10580293;28;20050;-78
2022/10/30 09:24:05;;;;;;;15.07;3.95;;;;;;;;;;10599282;28;20036;-78
2022/10/30 09:29:26;;;;;;;8.63;3.58;;;;;;;;;;10612945;27;20051;-81
2022/10/30 09:34:36;;;;;;;12.35;3.60;;;;;;;;;;10603437;27;20115;-79
2022/10/30 09:39:49;;;;;;;10.85;3.60;;;;;;;;;;10613148;27;20499;-79
2022/10/30 09:45:00;;;;;;;11.57;3.55;;;;;;;;;;10599139;27;20065;-78
2022/10/30 09:50:46;;;;;;;12.48;4.13;;;;;;;;;;10595837;28;20070;-80
2022/10/30 09:56:03;;;;;;;11.88;3.70;;;;;;;;;;10596950;27;20078;-79
2022/10/30 10:01:11;;;;;;;11.68;3.75;;;;;;;;;;10605525;27;20065;-79
2022/10/30 10:06:20;;;;;;;11.45;3.50;;;;;;;;;;10618726;27;20539;-80
2022/10/30 10:11:36;;;;;;;9.20;3.97;;;;;;;;;;10606205;27;20074;-79
2022/10/30 10:16:52;;;;;;;13.40;3.97;;;;;;;;;;10597110;27;20047;-79
2022/10/30 10:22:25;;;;;;;11.05;3.70;;;;;;;;;;10548982;28;20047;-78
2022/10/30 10:27:48;;;;;;;10.65;4.32;;;;;;;;;;10579258;27;20058;-79
2022/10/30 10:33:13;;;;;;;9.13;4.18;;;;;;;;;;10575579;27;20567;-80
2022/10/30 10:38:34;;;;;;;14.07;4.13;;;;;;;;;;10604791;27;20428;-79
2022/10/30 10:44:02;;;;;;;13.82;4.07;;;;;;;;;;10564001;27;20328;-79
2022/10/30 10:49:44;;;;;;;13.38;3.88;;;;;;;;;;10614984;27;20047;-79
2022/10/30 10:54:55;;;;;;;13.15;4.22;;;;;;;;;;10630162;27;20034;-79
2022/10/30 11:00:17;;;;;;;14.18;4.68;;;;;;;;;;10628892;27;20058;-79
2022/10/30 11:05:28;;;;;;;14.27;4.55;;;;;;;;;;10645949;27;20206;-79
2022/10/30 11:10:40;;;;;;;;;;;;;;;;;;10645240;27;20036;-78
2022/10/30 11:16:00;;;;;;;14.90;5.30;;;;;;;;;;10659052;27;19908;-80
2022/10/30 11:21:13;;;;;;;11.13;4.30;;;;;;;;;;10599852;27;20091;-79
2022/10/30 11:26:28;;;;;;;16.67;4.53;;;;;;;;;;10615915;27;20115;-79
2022/10/30 11:31:41;;;;;;;9.90;4.25;;;;;;;;;;10636708;27;20046;-78
2022/10/30 11:36:48;;;;;;;11.02;4.82;;;;;;;;;;10600444;27;20031;-79
2022/10/30 11:42:08;;;;;;;12.27;4.60;;;;;;;;;;10569184;28;20139;-79
2022/10/30 11:47:57;;;;;;;12.18;3.92;;;;;;;;;;10598366;27;20405;-79
2022/10/30 11:53:30;;;;;;;12.33;3.37;;;;;;;;;;10597710;27;20042;-79
2022/10/30 11:58:50;;;;;;;10.68;3.67;;;;;;;;;;10617812;27;20138;-81
2022/10/30 12:04:15;;;;;;;10.10;4.10;;;;;;;;;;10595994;27;20122;-78
2022/10/30 12:09:21;;;;;;;12.43;4.47;;;;;;;;;;10606064;27;20113;-77
2022/10/30 12:14:37;;;;;;;14.93;3.95;;;;;;;;;;10594254;27;20047;-78
2022/10/30 12:20:05;;;;;;;11.50;4.45;;;;;;;;;;10605009;27;20062;-79
2022/10/30 12:25:18;;;;;;;8.75;4.22;;;;;;;;;;10581093;27;20032;-78
2022/10/30 12:30:24;;;;;;;14.75;4.15;;;;;;;;;;10601690;27;20501;-79
2022/10/30 12:35:49;;;;;;;13.05;4.32;;;;;;;;;;10588251;27;20461;-78
2022/10/30 12:41:11;;;;;;;11.43;4.13;;;;;;;;;;10601208;27;20043;-79
2022/10/30 12:46:24;;;;;;;11.52;3.85;;;;;;;;;;10569757;27;20074;-78
2022/10/30 12:51:42;;;;;;;11.15;4.40;;;;;;;;;;10617780;27;20062;-79
2022/10/30 12:57:05;;;;;;;8.18;3.72;;;;;;;;;;10578488;27;20050;-78
2022/10/30 13:02:22;;;;;;;10.70;4.13;;;;;;;;;;10629346;27;20035;-78
2022/10/30 13:07:33;;;;;;;16.90;3.33;;;;;;;;;;10623602;27;20055;-78
2022/10/30 13:12:51;;;;;;;11.10;3.60;;;;;;;;;;10592161;27;20488;-77
2022/10/30 13:18:24;;;;;;;10.38;3.50;;;;;;;;;;10575602;28;20082;-78
2022/10/30 13:23:43;;;;;;;9.80;3.00;;;;;;;;;;10567432;28;20299;-77
2022/10/30 13:29:07;;;;;;;;;;;;;;;;;;10600190;28;20054;-77
2022/10/30 13:34:24;;;;;;;12.45;3.22;;;;;;;;;;10585238;28;19920;-77
2022/10/30 13:39:31;;;;;;;7.53;2.72;;;;;;;;;;10591896;28;20062;-78
2022/10/30 13:44:47;;;;;;;12.88;3.03;;;;;;;;;;10563540;28;20040;-79
2022/10/30 13:50:04;;;;;;;11.05;3.63;;;;;;;;;;10595401;28;20097;-78
2022/10/30 13:55:14;;;;;;;14.13;3.17;;;;;;;;;;10574186;28;20082;-78
2022/10/30 14:00:32;;;;;;;10.40;3.03;;;;;;;;;;10591128;27;20481;-78
2022/10/30 14:05:56;;;;;;;9.45;2.70;;;;;;;;;;10599028;28;20095;-79
2022/10/30 14:11:02;;;;;;;10.30;3.17;;;;;;;;;;10597746;28;20096;-78
2022/10/30 14:16:07;;;;;;;11.88;2.85;;;;;;;;;;10591697;27;20035;-78
2022/10/30 14:21:44;;;;;;;9.80;2.95;;;;;;;;;;10617675;27;20115;-78
2022/10/30 14:32:43;;;;;;;11.23;2.90;;;;;;;;;;10611784;27;20130;-79
2022/10/30 14:38:27;;;;;;;12.02;3.67;;;;;;;;;;10598925;27;20039;-78
2022/10/30 14:49:20;;;;;;;12.43;2.70;;;;;;;;;;10589605;27;20050;-78
2022/10/30 14:54:37;;;;;;;9.88;3.17;;;;;;;;;;10591427;27;20122;-79
2022/10/30 15:00:09;;;;;;;14.75;3.10;;;;;;;;;;10603292;27;20407;-79
2022/10/30 15:05:38;;;;;;;13.73;2.92;;;;;;;;;;10605013;27;20055;-78
2022/10/30 15:11:02;;;;;;;10.60;3.03;;;;;;;;;;10593385;27;20079;-78
2022/10/30 15:16:21;;;;;;;11.63;2.97;;;;;;;;;;10602222;27;20300;-77
2022/10/30 15:21:29;;;;;;;11.00;2.67;;;;;;;;;;10604558;27;20440;-78
2022/10/30 15:26:53;;;;;;;13.02;2.90;;;;;;;;;;10598103;27;20122;-77
2022/10/30 15:37:53;;;;;;;16.75;3.70;;;;;;;;;;10609462;27;20152;-78
2022/10/30 15:43:03;;;;;;;9.80;3.17;;;;;;;;;;10580114;28;20119;-78
2022/10/30 15:48:23;;;;;;;21.92;5.18;;;;;;;;;;10580331;27;20054;-80
2022/10/30 15:53:34;;;;;;;12.00;3.42;;;;;;;;;;10606666;27;20457;-78
2022/10/30 15:58:49;;;;;;;16.77;3.60;;;;;;;;;;10594179;27;20035;-78
2022/10/30 16:04:15;;;;;;;14.50;4.78;;;;;;;;;;10620032;27;20472;-78
2022/10/30 16:09:19;;;;;;;9.18;3.80;;;;;;;;;;10612528;27;20051;-78
2022/10/30 16:14:32;;;;;;;13.65;3.97;;;;;;;;;;10559202;28;20128;-78
2022/10/30 16:19:40;;;;;;;13.18;3.50;;;;;;;;;;10595162;27;20042;-78
2022/10/30 16:25:05;;;;;;;16.35;4.80;;;;;;;;;;10576942;27;20044;-78
2022/10/30 16:30:19;;;;;;;15.90;4.05;;;;;;;;;;10606504;27;20044;-78
2022/10/30 16:35:29;;;;;;;11.05;3.60;;;;;;;;;;10580535;27;20127;-78
2022/10/30 16:40:40;;;;;;;15.70;4.40;;;;;;;;;;10590030;27;20062;-78
2022/10/30 16:45:59;;;;;;;12.95;4.25;;;;;;;;;;10560005;27;20042;-79
2022/10/30 16:51:04;;;;;;;12.20;4.85;;;;;;;;;;10582086;27;20500;-77
2022/10/30 16:56:17;;;;;;;15.10;4.55;;;;;;;;;;10597258;27;20135;-78
2022/10/30 17:01:27;;;;;;;14.63;4.68;;;;;;;;;;10561101;27;20089;-78
2022/10/30 17:06:38;;;;;;;16.33;4.97;;;;;;;;;;10592371;27;20043;-77
2022/10/30 17:11:48;;;;;;;18.77;4.63;;;;;;;;;;10580157;28;20040;-77
2022/10/30 17:16:56;;;;;;;12.85;4.30;;;;;;;;;;10592108;28;20047;-80
2022/10/30 17:22:12;;;;;;;14.95;5.25;;;;;;;;;;10575799;28;20043;-78
2022/10/30 17:27:26;;;;;;;11.27;4.60;;;;;;;;;;10605384;28;20035;-78
2022/10/30 17:32:43;;;;;;;16.60;4.53;;;;;;;;;;10605595;28;20055;-78
2022/10/30 17:38:16;;;;;;;17.58;5.53;;;;;;;;;;10605503;28;20051;-78
2022/10/30 17:43:27;;;;;;;23.20;5.40;;;;;;;;;;10557285;28;20079;-78
2022/10/30 17:48:34;;;;;;;12.48;6.00;;;;;;;;;;10578372;27;20035;-78
2022/10/30 17:53:49;;;;;;;16.27;5.72;;;;;;;;;;10597258;27;20054;-79
2022/10/30 17:59:11;;;;;;;18.58;5.72;;;;;;;;;;10608250;27;20051;-79
2022/10/30 18:04:42;;;;;;;15.05;5.53;;;;;;;;;;10560810;28;20062;-79
2022/10/30 18:09:46;;;;;;;20.88;5.20;;;;;;;;;;10608262;27;20074;-78
2022/10/30 18:14:53;;;;;;;16.58;5.45;;;;;;;;;;10606139;27;20054;-78
2022/10/30 18:20:02;;;;;;;19.05;5.93;;;;;;;;;;10606336;27;20044;-78
2022/10/30 18:25:16;;;;;;;20.02;7.45;;;;;;;;;;10603823;27;20047;-80
2022/10/30 18:30:20;;;;;;;20.48;7.95;;;;;;;;;;10589564;27;20061;-78
2022/10/30 18:35:34;;;;;;;19.20;6.60;;;;;;;;;;10618357;27;20039;-80
2022/10/30 18:40:42;;;;;;;20.45;6.03;;;;;;;;;;10607461;27;20469;-79
2022/10/30 18:45:48;;;;;;;18.02;6.45;;;;;;;;;;10603362;27;20050;-79
2022/10/30 18:51:00;;;;;;;16.70;6.45;;;;;;;;;;10604477;27;20045;-80
2022/10/30 18:56:06;;;;;;;21.98;7.25;;;;;;;;;;10628815;27;20024;-77
2022/10/30 19:01:16;;;;;;;19.75;6.40;;;;;;;;;;10655238;27;20051;-77
2022/10/30 19:06:32;;;;;;;17.20;6.72;;;;;;;;;;10659678;27;20043;-78
2022/10/30 19:11:39;;;;;;;22.98;7.70;;;;;;;;;;10605607;27;20098;-78
2022/10/30 19:16:59;;;;;;;16.70;6.70;;;;;;;;;;10610862;27;20137;-79
2022/10/30 19:22:13;;;;;;;17.77;7.00;;;;;;;;;;10631869;27;20115;-78
2022/10/30 19:27:23;;;;;;;23.20;7.72;;;;;;;;;;10656052;27;20054;-77
2022/10/30 19:32:30;;;;;;;26.83;8.07;;;;;;;;;;10678573;27;20027;-79
2022/10/30 19:37:40;;;;;;;23.30;7.78;;;;;;;;;;10624040;27;20066;-76
2022/10/30 19:42:53;;;;;;;18.85;7.53;;;;;;;;;;10673209;27;20043;-78
2022/10/30 19:48:03;;;;;;;19.67;8.38;;;;;;;;;;10664064;27;20111;-78
2022/10/30 19:53:13;;;;;;;20.30;7.68;;;;;;;;;;10631922;27;20099;-78
2022/10/30 19:58:25;;;;;;;25.85;10.10;;;;;;;;;;10633231;27;20475;-78
2022/10/30 20:03:35;;;;;;;24.27;8.80;;;;;;;;;;10623690;27;20536;-79
2022/10/30 20:08:46;;;;;;;21.02;8.32;;;;;;;;;;10604170;27;20085;-78
2022/10/30 20:13:57;;;;;;;28.10;8.38;;;;;;;;;;10583746;28;20605;-78
2022/10/30 20:19:32;;;;;;;21.45;8.52;;;;;;;;;;10600754;27;20051;-79
2022/10/30 20:24:46;;;;;;;23.60;7.85;;;;;;;;;;10603600;27;20121;-78
2022/10/30 20:29:58;;;;;;;26.65;9.93;;;;;;;;;;10630663;27;20046;-78
2022/10/30 20:35:04;;;;;;;20.83;8.82;;;;;;;;;;10580097;28;20050;-79
2022/10/30 20:40:17;;;;;;;20.55;8.10;;;;;;;;;;10599848;27;20071;-79
2022/10/30 20:45:22;;;;;;;19.92;8.48;;;;;;;;;;10607680;27;20066;-79
2022/10/30 20:55:57;;;;;;;22.52;8.48;;;;;;;;;;10639441;27;20054;-78
2022/10/30 21:01:05;;;;;;;28.08;8.90;;;;;;;;;;10615279;27;20047;-78
2022/10/30 21:06:13;;;;;;;27.10;11.07;;;;;;;;;;10599990;28;20080;-78
2022/10/30 21:11:28;;;;;;;28.55;9.75;;;;;;;;;;10611735;27;20524;-79
2022/10/30 21:16:39;;;;;;;26.13;8.52;;;;;;;;;;10595021;28;20043;-79
2022/10/30 21:21:55;;;;;;;25.80;8.57;;;;;;;;;;10572235;28;20035;-78
2022/10/30 21:27:00;;;;;;;25.27;8.82;;;;;;;;;;10590908;28;20047;-78
2022/10/30 21:32:11;;;;;;;22.63;7.78;;;;;;;;;;10587218;28;20040;-78
2022/10/30 21:37:27;;;;;;;24.50;8.63;;;;;;;;;;10619206;28;20042;-79
2022/10/30 21:42:47;;;;;;;20.55;7.82;;;;;;;;;;10549585;28;20504;-80
2022/10/30 21:47:54;;;;;;;28.50;8.98;;;;;;;;;;10568766;27;20051;-79
2022/10/30 21:53:02;;;;;;;28.00;8.80;;;;;;;;;;10584289;28;20047;-80
2022/10/30 21:58:11;;;;;;;22.60;9.80;;;;;;;;;;10566856;28;20047;-78
2022/10/30 22:03:18;;;;;;;24.90;9.75;;;;;;;;;;10615635;28;20072;-79
2022/10/30 22:08:32;;;;;;;21.17;7.80;;;;;;;;;;10616228;28;20094;-78
2022/10/30 22:13:42;;;;;;;24.65;8.70;;;;;;;;;;10559019;28;20036;-78
2022/10/30 22:18:56;;;;;;;20.77;8.88;;;;;;;;;;10589537;28;20527;-78
2022/10/30 22:24:03;;;;;;;25.63;8.48;;;;;;;;;;10556480;28;20134;-79
2022/10/30 22:29:10;;;;;;;28.75;10.02;;;;;;;;;;10578100;28;20039;-77
2022/10/30 22:34:13;;;;;;;20.95;8.55;;;;;;;;;;10578657;27;20040;-79
2022/10/30 22:39:23;;;;;;;28.63;10.68;;;;;;;;;;10592137;27;20380;-77
2022/10/30 22:44:33;;;;;;;26.60;9.43;;;;;;;;;;10562822;28;20098;-77
2022/10/30 22:49:41;;;;;;;22.67;9.77;;;;;;;;;;10595126;27;20050;-80
2022/10/30 22:54:53;;;;;;;22.90;9.77;;;;;;;;;;10616925;27;20042;-79
2022/10/30 23:00:17;;;;;;;22.60;9.25;;;;;;;;;;10609505;27;20035;-78
2022/10/30 23:05:25;;;;;;;24.17;9.20;;;;;;;;;;10603049;27;20054;-79
2022/10/30 23:10:33;;;;;;;26.50;9.25;;;;;;;;;;10604675;27;20040;-79
2022/10/30 23:15:46;;;;;;;26.70;8.98;;;;;;;;;;10618500;27;20092;-79
2022/10/30 23:21:04;;;;;;;24.67;8.73;;;;;;;;;;10593063;27;20039;-79
2022/10/30 23:26:18;;;;;;;23.95;8.82;;;;;;;;;;10574886;27;20039;-79
2022/10/30 23:31:31;;;;;;;19.88;8.48;;;;;;;;;;10593037;27;20512;-78
2022/10/30 23:36:38;;;;;;;25.85;8.90;;;;;;;;;;10618475;27;20112;-79
2022/10/30 23:41:49;;;;;;;34.10;8.73;;;;;;;;;;10590003;27;20047;-79
2022/10/30 23:47:02;;;;;;;23.17;9.05;;;;;;;;;;10567384;27;20134;-79
2022/10/30 23:52:18;;;;;;;19.67;8.45;;;;;;;;;;10568934;28;20036;-78
2022/10/30 23:57:25;;;;;;;22.48;8.73;;;;;;;;;;10584616;27;20548;-78
